Sochi International

Airport
ICAO code: 
URSS
Summary
ICAO Region: 
APAC
Territory: 
Location: 
Sochi, Krasnodar Krai,
Coordinates: 
Aerial View: 
43° 26' 39.248" N, 39° 56' 36.032" E
Metar
Observation
URSS 030530Z 05003MPS 290V060 9999 NSC 06/01 Q1018 R06/010070 R02/010070 NOSIG RMK R02/03007MPS QFE763
Station
Adler
Date/Time
2021-12-03 05:30:00
Wind direction
50°
Lowest cloud amount
n/a
Temperature
6°C
Dew point
1°C
Humidity
70%
QNH
1018 hPa
Weather condition
n/a

Description

Airport located in Adler District of the resort city of Sochi situated at the Black Sea coast in Krasnodar Krai, Russia.

Climatology

Humid “subtropical” climate (Köppen climate classification Cfa) - characterized by hot, humid summers and cool winters. Significant amounts of precipitation occur in all seasons in most areas. Winter rainfall (and sometimes snowfall) is associated with large storms that the westerlies steer from west to east. Most summer rainfall occurs during thunderstorms.

Runways

Designator Length Width Surface Rops
2/20 2200 49 CON Yes/Yes
6/24 2890 50 CON Yes/Yes
Airport map: 
Aerial View: 

Accidents and Serious Incidents at or in the vicinity of URSS

SKYbrary Partners:

Safety knowledge contributed by: